Time;durP1;ratioP1;P1;durP2;ratioP2;P2;SDS_P1;SDS_P2;PMS_P1;PMS_P2;Temp;Humidity;BMP_temperature;BMP_pressure;BME280_temperature;BME280_humidity;BME280_pressure;Samples;Min_cycle;Max_cycle;Signal;HPM_P1;HPM_P2
2021/07/26 00:00:58;;;;;;;10.00;4.27;;;21.10;99.90;;;;;;4995051;28;20187;-78
2021/07/26 00:03:23;;;;;;;7.47;4.03;;;21.10;99.90;;;;;;4994967;28;20587;-79
2021/07/26 00:05:57;;;;;;;6.97;4.20;;;21.10;99.90;;;;;;5012142;28;20188;-79
2021/07/26 00:08:23;;;;;;;5.90;3.90;;;21.20;99.90;;;;;;4993680;28;20183;-81
2021/07/26 00:10:58;;;;;;;4.63;3.73;;;21.30;99.90;;;;;;5012324;28;20726;-81
2021/07/26 00:13:23;;;;;;;5.13;4.17;;;21.20;99.90;;;;;;4994211;28;20187;-79
2021/07/26 00:15:50;;;;;;;7.97;4.40;;;21.10;99.90;;;;;;4995148;28;20202;-79
2021/07/26 00:18:15;;;;;;;5.43;3.80;;;21.10;99.90;;;;;;5012475;28;20210;-82
2021/07/26 00:20:41;;;;;;;5.97;3.60;;;21.20;99.90;;;;;;4994947;28;20660;-80
2021/07/26 00:23:06;;;;;;;6.27;4.13;;;21.20;99.90;;;;;;4994847;28;20648;-80
2021/07/26 00:25:32;;;;;;;4.67;3.87;;;21.20;99.90;;;;;;4994147;28;20698;-78
2021/07/26 00:27:57;;;;;;;5.60;3.60;;;21.20;99.90;;;;;;5012188;28;20554;-81
2021/07/26 00:30:23;;;;;;;5.93;3.77;;;21.10;99.90;;;;;;4994288;28;20256;-80
2021/07/26 00:32:48;;;;;;;4.30;3.90;;;21.10;99.90;;;;;;5011961;28;20204;-81
2021/07/26 00:35:14;;;;;;;5.53;4.17;;;21.10;99.90;;;;;;5011887;28;20187;-82
2021/07/26 00:37:40;;;;;;;7.40;4.30;;;21.00;99.90;;;;;;4994526;28;20706;-81
2021/07/26 00:40:09;;;;;;;5.07;3.80;;;21.10;99.90;;;;;;4994290;28;20186;-80
2021/07/26 00:42:36;;;;;;;6.33;3.90;;;21.00;99.90;;;;;;4993329;28;20178;-79
2021/07/26 00:45:02;;;;;;;5.30;4.07;;;21.00;99.90;;;;;;5012216;28;20190;-80
2021/07/26 00:47:28;;;;;;;8.03;4.60;;;20.90;99.90;;;;;;5012345;28;20229;-81
2021/07/26 00:49:53;;;;;;;4.97;4.07;;;20.90;99.90;;;;;;5012178;28;20279;-80
2021/07/26 00:52:19;;;;;;;5.97;3.77;;;21.10;99.90;;;;;;5012054;28;20189;-81
2021/07/26 00:54:46;;;;;;;6.67;4.20;;;21.00;99.90;;;;;;5011926;28;20193;-79
2021/07/26 00:57:12;;;;;;;6.60;4.20;;;21.00;99.90;;;;;;4993683;28;20178;-78
2021/07/26 00:59:39;;;;;;;6.33;4.03;;;20.90;99.90;;;;;;4995091;28;20199;-78
2021/07/26 01:02:04;;;;;;;5.33;4.40;;;20.90;99.90;;;;;;5011667;28;20185;-78
2021/07/26 01:04:30;;;;;;;3.90;3.50;;;20.80;99.90;;;;;;5015836;28;20216;-82
2021/07/26 01:06:56;;;;;;;5.23;3.97;;;20.70;99.90;;;;;;4998078;28;20303;-81
2021/07/26 01:09:22;;;;;;;7.27;4.20;;;20.90;99.90;;;;;;4998897;28;20210;-78
2021/07/26 01:11:48;;;;;;;7.60;3.80;;;20.90;99.90;;;;;;4997271;28;22193;-80
2021/07/26 01:14:17;;;;;;;7.50;3.43;;;20.70;99.90;;;;;;5015626;28;20183;-81
2021/07/26 01:16:47;;;;;;;7.77;4.33;;;20.60;99.90;;;;;;4997913;28;20266;-79
2021/07/26 01:19:13;;;;;;;5.43;3.97;;;20.70;99.90;;;;;;4998366;28;20525;-78
2021/07/26 01:21:39;;;;;;;4.27;3.83;;;20.80;99.90;;;;;;5002749;28;20617;-83
2021/07/26 01:24:05;;;;;;;5.60;3.90;;;20.70;99.90;;;;;;5001321;28;20276;-81
2021/07/26 01:26:31;;;;;;;3.80;3.40;;;20.50;99.90;;;;;;5015754;28;20641;-80
2021/07/26 01:29:06;;;;;;;6.00;4.00;;;20.60;99.90;;;;;;4994980;28;20206;-82
2021/07/26 01:31:32;;;;;;;4.93;3.83;;;20.40;99.90;;;;;;4994623;28;20185;-81
2021/07/26 01:33:58;;;;;;;6.70;3.93;;;20.40;99.90;;;;;;4999256;28;20312;-81
2021/07/26 01:36:25;;;;;;;4.60;3.83;;;20.40;99.90;;;;;;4999908;28;20272;-80
2021/07/26 01:38:52;;;;;;;7.37;4.17;;;20.40;99.90;;;;;;5004488;28;20177;-80
2021/07/26 01:41:21;;;;;;;5.13;4.27;;;20.30;99.90;;;;;;5004537;28;20237;-80
2021/07/26 01:44:06;;;;;;;5.00;3.90;;;20.30;99.90;;;;;;5019255;28;20210;-80
2021/07/26 01:46:54;;;;;;;6.43;4.13;;;20.30;99.90;;;;;;4996061;28;20305;-79
2021/07/26 01:49:38;;;;;;;6.73;4.17;;;20.30;99.90;;;;;;5015728;28;20205;-80
2021/07/26 01:52:05;;;;;;;5.10;3.83;;;20.20;99.90;;;;;;4997434;28;20185;-80
2021/07/26 01:54:30;;;;;;;6.37;3.97;;;20.20;99.90;;;;;;4996501;28;20225;-80
2021/07/26 01:56:56;;;;;;;7.70;3.83;;;20.10;99.90;;;;;;5022858;28;20189;-80
2021/07/26 01:59:22;;;;;;;7.50;4.37;;;20.10;99.90;;;;;;5017155;28;20250;-80
2021/07/26 02:01:48;;;;;;;4.50;3.80;;;20.10;99.90;;;;;;4998346;28;20633;-80
2021/07/26 02:04:14;;;;;;;6.53;4.17;;;20.00;99.90;;;;;;5016409;28;20193;-80
2021/07/26 02:06:40;;;;;;;6.30;4.17;;;19.90;99.90;;;;;;4996926;28;20237;-79
2021/07/26 02:09:06;;;;;;;7.47;3.93;;;19.90;99.90;;;;;;4996824;28;20184;-81
2021/07/26 02:11:31;;;;;;;4.87;4.17;;;19.80;99.90;;;;;;4995747;28;21871;-80
2021/07/26 02:13:57;;;;;;;6.77;3.63;;;19.80;99.90;;;;;;4996851;28;20192;-79
2021/07/26 02:16:22;;;;;;;5.60;3.90;;;19.70;99.90;;;;;;5014902;28;20189;-79
2021/07/26 02:18:48;;;;;;;7.20;3.80;;;19.80;99.90;;;;;;4987847;28;20193;-80
2021/07/26 02:21:14;;;;;;;9.23;4.20;;;19.80;99.90;;;;;;5016219;28;20197;-80
2021/07/26 02:23:39;;;;;;;6.97;4.17;;;19.80;99.90;;;;;;5019753;28;20816;-80
2021/07/26 02:26:05;;;;;;;6.00;3.70;;;19.80;99.90;;;;;;5014201;28;20192;-80
2021/07/26 02:28:31;;;;;;;9.77;4.07;;;19.80;99.90;;;;;;5018553;28;20196;-79
2021/07/26 02:30:56;;;;;;;7.13;3.83;;;19.80;99.90;;;;;;5000042;28;20383;-79
2021/07/26 02:33:22;;;;;;;6.67;3.93;;;19.80;99.90;;;;;;5016781;28;20700;-80
2021/07/26 02:35:51;;;;;;;7.80;4.23;;;19.70;99.90;;;;;;4996661;28;20215;-79
2021/07/26 02:38:16;;;;;;;8.03;4.20;;;19.70;99.90;;;;;;5015953;28;20219;-79
2021/07/26 02:40:42;;;;;;;8.00;4.50;;;19.80;99.90;;;;;;5022950;28;20193;-79
2021/07/26 02:43:08;;;;;;;9.37;4.07;;;19.80;99.90;;;;;;4998587;28;20189;-79
2021/07/26 02:45:36;;;;;;;7.33;4.60;;;19.70;99.90;;;;;;5019732;28;21379;-80
2021/07/26 02:48:01;;;;;;;6.73;3.97;;;19.70;99.90;;;;;;4999290;28;20205;-78
2021/07/26 02:50:27;;;;;;;6.43;4.67;;;19.50;99.90;;;;;;4997119;28;20708;-80
2021/07/26 02:52:53;;;;;;;5.60;4.17;;;19.50;99.90;;;;;;4999565;28;20264;-79
2021/07/26 02:55:19;;;;;;;11.13;4.90;;;19.50;99.90;;;;;;4995893;28;20332;-80
2021/07/26 02:57:45;;;;;;;6.27;4.33;;;19.50;99.90;;;;;;5005592;28;20275;-79
2021/07/26 03:00:11;;;;;;;8.03;4.23;;;19.50;99.90;;;;;;4996463;28;20201;-79
2021/07/26 03:02:37;;;;;;;9.13;4.20;;;19.40;99.90;;;;;;4998104;28;20188;-79
2021/07/26 03:05:04;;;;;;;6.17;4.40;;;19.50;99.90;;;;;;5013859;28;20216;-79
2021/07/26 03:07:31;;;;;;;6.07;4.17;;;19.50;99.90;;;;;;5017733;28;20174;-80
2021/07/26 03:09:57;;;;;;;9.17;4.60;;;19.60;99.90;;;;;;5018175;28;20236;-79
2021/07/26 03:12:22;;;;;;;6.47;4.47;;;19.50;99.90;;;;;;4997585;28;20185;-80
2021/07/26 03:14:48;;;;;;;11.20;4.23;;;19.50;99.90;;;;;;5001316;28;20644;-80
2021/07/26 03:17:13;;;;;;;12.63;5.20;;;19.40;99.90;;;;;;5012985;28;20629;-79
2021/07/26 03:19:39;;;;;;;7.07;4.90;;;19.40;99.90;;;;;;4999183;28;20179;-80
2021/07/26 03:22:44;;;;;;;8.93;5.33;;;19.30;99.90;;;;;;5015654;28;20177;-80
2021/07/26 03:25:10;;;;;;;11.90;5.27;;;19.30;99.90;;;;;;5001670;28;20210;-80
2021/07/26 03:27:36;;;;;;;7.00;5.10;;;19.20;99.90;;;;;;5013834;28;20238;-79
2021/07/26 03:30:01;;;;;;;8.27;5.17;;;19.20;99.90;;;;;;5003967;28;20216;-79
2021/07/26 03:32:27;;;;;;;10.27;5.73;;;19.30;99.90;;;;;;5014841;28;20207;-80
2021/07/26 03:34:52;;;;;;;13.17;6.23;;;19.40;99.90;;;;;;4995979;28;20215;-79
2021/07/26 03:37:18;;;;;;;11.43;6.00;;;19.30;99.90;;;;;;5016827;28;20254;-80
2021/07/26 03:39:43;;;;;;;10.60;5.93;;;19.40;99.90;;;;;;5018524;28;20287;-79
2021/07/26 03:42:09;;;;;;;9.30;6.83;;;19.30;99.90;;;;;;4997895;28;20640;-80
2021/07/26 03:44:34;;;;;;;10.80;6.73;;;19.40;99.90;;;;;;4997004;28;20564;-79
2021/07/26 03:47:00;;;;;;;10.20;7.13;;;19.30;99.90;;;;;;4990565;28;20322;-79
2021/07/26 03:49:26;;;;;;;10.70;7.07;;;19.20;99.90;;;;;;4992718;28;20282;-80
2021/07/26 03:51:51;;;;;;;10.63;6.87;;;19.30;99.90;;;;;;4993308;28;20180;-79
2021/07/26 03:54:17;;;;;;;10.10;6.87;;;19.40;99.90;;;;;;4998026;28;20712;-79
2021/07/26 03:56:42;;;;;;;8.10;6.37;;;19.40;99.90;;;;;;4996390;28;20546;-82
2021/07/26 03:59:08;;;;;;;10.40;5.70;;;19.40;99.90;;;;;;5017194;28;20189;-79
2021/07/26 04:01:34;;;;;;;7.50;5.70;;;19.40;99.90;;;;;;5018066;28;20193;-79
2021/07/26 04:03:59;;;;;;;12.50;6.00;;;19.60;99.90;;;;;;4999650;28;20219;-79
2021/07/26 04:06:25;;;;;;;8.97;6.07;;;19.60;99.90;;;;;;5015890;28;20200;-79
2021/07/26 04:08:52;;;;;;;12.80;6.37;;;19.50;99.90;;;;;;4998121;28;20187;-79
2021/07/26 04:11:27;;;;;;;11.13;6.90;;;19.50;99.90;;;;;;4998224;28;20209;-79
2021/07/26 04:13:57;;;;;;;10.43;6.33;;;19.50;99.90;;;;;;4995742;28;20565;-79
2021/07/26 04:16:22;;;;;;;8.87;6.50;;;19.50;99.90;;;;;;4999440;28;20664;-79
2021/07/26 04:18:50;;;;;;;11.30;7.10;;;19.50;99.90;;;;;;5014480;28;20196;-80
2021/07/26 04:21:19;;;;;;;8.23;5.90;;;19.40;99.90;;;;;;5016756;28;20598;-79
2021/07/26 04:23:45;;;;;;;10.23;7.20;;;19.60;99.90;;;;;;5002411;28;20279;-79
2021/07/26 04:26:10;;;;;;;12.03;6.47;;;19.50;99.90;;;;;;4997806;28;20196;-79
2021/07/26 04:28:36;;;;;;;11.77;7.00;;;19.50;99.90;;;;;;4995809;28;20196;-80
2021/07/26 04:31:03;;;;;;;11.50;6.07;;;19.50;99.90;;;;;;4994634;28;20570;-79
2021/07/26 04:33:28;;;;;;;11.33;6.17;;;19.50;99.90;;;;;;5018025;28;20228;-80
2021/07/26 04:35:54;;;;;;;15.33;6.80;;;19.70;99.90;;;;;;4996403;28;20188;-79
2021/07/26 04:38:20;;;;;;;9.73;6.10;;;19.60;99.90;;;;;;4994877;28;20189;-80
2021/07/26 04:40:45;;;;;;;11.63;6.27;;;19.70;99.90;;;;;;5010012;28;20719;-79
2021/07/26 04:43:11;;;;;;;7.43;5.60;;;19.60;99.90;;;;;;4989504;28;20190;-79
2021/07/26 04:45:36;;;;;;;8.03;5.53;;;19.60;99.90;;;;;;5002328;28;20196;-80
2021/07/26 04:48:02;;;;;;;10.70;5.80;;;19.70;99.90;;;;;;5008081;28;20232;-79
2021/07/26 04:50:28;;;;;;;7.93;5.97;;;19.80;99.90;;;;;;5023592;28;20236;-79
2021/07/26 04:52:53;;;;;;;7.83;5.53;;;19.90;99.90;;;;;;5032569;28;20180;-80
2021/07/26 04:55:19;;;;;;;8.13;5.43;;;19.90;99.90;;;;;;5002854;28;20212;-81
2021/07/26 04:57:45;;;;;;;7.00;5.60;;;19.90;99.90;;;;;;5013668;28;20195;-79
2021/07/26 05:00:11;;;;;;;10.70;5.87;;;19.90;99.90;;;;;;5006360;28;20320;-80
2021/07/26 05:02:38;;;;;;;8.87;6.00;;;19.80;99.90;;;;;;5002821;28;20185;-80
2021/07/26 05:05:05;;;;;;;10.20;6.27;;;19.80;99.90;;;;;;5014958;28;20181;-80
2021/07/26 05:07:30;;;;;;;11.53;5.63;;;19.80;99.90;;;;;;5005951;28;20180;-79
2021/07/26 05:09:56;;;;;;;8.00;5.97;;;19.80;99.90;;;;;;4996357;28;20199;-80
2021/07/26 05:12:21;;;;;;;9.90;5.83;;;19.90;99.90;;;;;;5011557;28;20178;-80
2021/07/26 05:14:47;;;;;;;11.27;6.53;;;19.80;99.90;;;;;;4994601;28;20544;-80
2021/07/26 05:17:17;;;;;;;9.80;5.77;;;19.80;99.90;;;;;;5001138;28;20200;-79
2021/07/26 05:19:42;;;;;;;8.87;5.73;;;19.90;99.90;;;;;;5000322;28;20287;-80
2021/07/26 05:22:08;;;;;;;7.63;5.43;;;19.90;99.90;;;;;;5019627;28;20279;-79
2021/07/26 05:24:34;;;;;;;10.17;5.60;;;19.90;99.90;;;;;;5013919;28;20248;-80
2021/07/26 05:27:04;;;;;;;10.27;5.60;;;19.90;99.90;;;;;;5021644;28;20275;-79
2021/07/26 05:29:31;;;;;;;9.00;5.77;;;19.80;99.90;;;;;;4995931;28;20189;-80
2021/07/26 14:00:49;;;;;;;12.20;7.73;;;26.40;99.90;;;;;;4957673;28;20230;-81
2021/07/26 14:03:15;;;;;;;8.77;6.43;;;26.60;99.90;;;;;;4967993;28;20197;-81
2021/07/26 14:05:40;;;;;;;9.70;7.03;;;27.10;99.90;;;;;;4959338;28;20561;-81
2021/07/26 14:08:06;;;;;;;8.70;6.17;;;28.00;99.50;;;;;;4937225;29;20242;-81
2021/07/26 14:10:31;;;;;;;7.83;5.00;;;28.00;98.30;;;;;;4966026;28;20698;-81
2021/07/26 14:12:57;;;;;;;6.00;3.60;;;27.70;98.40;;;;;;4956397;29;20225;-80
2021/07/26 14:15:23;;;;;;;4.17;3.40;;;27.20;98.30;;;;;;4962003;28;20191;-81
2021/07/26 14:17:48;;;;;;;5.10;2.27;;;26.90;98.80;;;;;;4941634;28;20277;-81
2021/07/26 14:20:14;;;;;;;2.47;2.00;;;27.30;97.50;;;;;;4962494;28;20233;-81
2021/07/26 14:22:40;;;;;;;2.60;1.93;;;27.70;97.20;;;;;;4971245;28;20253;-81
2021/07/26 14:25:07;;;;;;;2.60;1.80;;;27.70;96.50;;;;;;4963947;28;20557;-81
2021/07/26 14:27:32;;;;;;;7.67;1.90;;;28.60;96.30;;;;;;4939009;29;20202;-81
2021/07/26 14:29:58;;;;;;;3.27;2.00;;;29.40;94.80;;;;;;4965816;28;20188;-81
2021/07/26 14:32:23;;;;;;;2.03;1.83;;;30.20;94.20;;;;;;4943309;28;20673;-81
2021/07/26 14:34:49;;;;;;;2.03;1.77;;;30.60;93.00;;;;;;4962414;28;20190;-81
2021/07/26 14:37:15;;;;;;;2.17;1.87;;;30.50;92.20;;;;;;4960820;28;20210;-81
2021/07/26 14:39:40;;;;;;;1.93;1.73;;;30.40;92.30;;;;;;4964814;28;20698;-81
2021/07/26 14:42:06;;;;;;;2.20;1.67;;;31.20;91.40;;;;;;4958895;28;20187;-81
2021/07/26 14:44:32;;;;;;;2.50;1.70;;;31.90;88.90;;;;;;4981450;28;20529;-81
2021/07/26 14:46:57;;;;;;;1.95;1.63;;;32.30;88.30;;;;;;4976408;28;20221;-82
2021/07/26 14:49:23;;;;;;;2.13;1.43;;;32.30;86.80;;;;;;4967322;28;20178;-82
2021/07/26 14:51:48;;;;;;;1.80;1.60;;;32.10;86.60;;;;;;4976189;28;20556;-83
2021/07/26 14:54:14;;;;;;;1.53;1.43;;;31.30;86.40;;;;;;4982561;28;20194;-81
2021/07/26 14:56:39;;;;;;;1.63;1.50;;;30.60;87.80;;;;;;4960418;28;20186;-81
2021/07/26 14:59:07;;;;;;;1.87;1.57;;;29.40;90.10;;;;;;4962429;28;20293;-81
2021/07/26 15:01:34;;;;;;;2.30;1.70;;;28.00;91.90;;;;;;4978827;28;20250;-81
2021/07/26 15:04:00;;;;;;;1.97;1.47;;;27.00;93.80;;;;;;4977505;28;20194;-81
2021/07/26 15:06:25;;;;;;;2.93;2.10;;;26.00;95.20;;;;;;4975412;28;20202;-81
2021/07/26 15:08:51;;;;;;;2.20;1.87;;;25.70;95.70;;;;;;4977792;28;20284;-80
2021/07/26 15:11:17;;;;;;;2.23;1.63;;;25.60;96.40;;;;;;4963119;28;20241;-80
2021/07/26 15:13:43;;;;;;;2.70;2.20;;;25.80;96.40;;;;;;4977691;28;20281;-81
2021/07/26 15:16:09;;;;;;;2.73;2.10;;;26.50;96.60;;;;;;4980045;28;20276;-81
2021/07/26 15:18:34;;;;;;;2.50;2.00;;;26.90;95.90;;;;;;4959971;28;20635;-80
2021/07/26 15:21:01;;;;;;;3.67;2.17;;;27.40;95.10;;;;;;4957354;28;20639;-81
2021/07/26 15:23:28;;;;;;;2.77;2.30;;;27.60;94.30;;;;;;4959981;28;20182;-80
2021/07/26 15:25:55;;;;;;;5.10;2.57;;;27.80;94.50;;;;;;4962482;28;20186;-81
2021/07/26 15:28:21;;;;;;;4.07;2.13;;;28.40;94.00;;;;;;4956959;28;20174;-81
2021/07/26 15:30:46;;;;;;;3.70;2.60;;;29.30;92.80;;;;;;4962420;28;20201;-81
2021/07/26 15:33:12;;;;;;;3.63;2.30;;;29.80;92.30;;;;;;4966534;28;20740;-81
2021/07/26 15:35:38;;;;;;;2.43;1.90;;;30.20;91.50;;;;;;4961900;28;20544;-81
2021/07/26 15:38:05;;;;;;;2.57;2.20;;;30.60;90.70;;;;;;4957531;28;20186;-81
2021/07/26 15:40:33;;;;;;;2.40;2.00;;;29.90;91.10;;;;;;4981271;28;20737;-81
2021/07/26 15:42:59;;;;;;;3.33;2.20;;;29.20;91.50;;;;;;4978230;28;20651;-81
2021/07/26 15:45:25;;;;;;;3.63;2.10;;;28.40;92.40;;;;;;4981325;28;20280;-83
2021/07/26 15:47:51;;;;;;;3.00;2.60;;;28.30;93.00;;;;;;4960799;28;20551;-81
2021/07/26 15:50:17;;;;;;;2.50;2.00;;;28.50;92.80;;;;;;4963180;28;20183;-82
2021/07/26 15:52:44;;;;;;;7.27;2.13;;;29.00;92.20;;;;;;4978199;28;20227;-81
2021/07/26 15:55:12;;;;;;;3.57;2.37;;;29.40;91.80;;;;;;4980076;28;20206;-81
2021/07/26 15:57:37;;;;;;;4.37;2.40;;;29.10;92.00;;;;;;4954477;28;20277;-87
2021/07/26 16:00:05;;;;;;;3.87;2.53;;;28.30;92.90;;;;;;4945982;28;20308;-88
2021/07/26 16:02:33;;;;;;;2.90;2.50;;;27.40;94.20;;;;;;4949293;28;20203;-87
2021/07/26 16:04:58;;;;;;;2.70;2.50;;;26.70;95.00;;;;;;4969959;28;20179;-87
2021/07/26 16:07:24;;;;;;;3.23;2.37;;;26.20;95.70;;;;;;4953773;28;20179;-85
2021/07/26 16:09:49;;;;;;;4.20;2.63;;;26.20;96.00;;;;;;4971091;28;20193;-83
2021/07/26 16:12:15;;;;;;;3.67;2.17;;;26.60;96.00;;;;;;4958445;28;20188;-87
2021/07/26 16:14:41;;;;;;;2.80;2.33;;;27.20;94.90;;;;;;4962023;28;20194;-89
2021/07/26 16:17:06;;;;;;;7.07;2.77;;;27.60;94.30;;;;;;4960560;28;20236;-86
2021/07/26 16:19:32;;;;;;;3.70;2.47;;;27.90;93.90;;;;;;4965965;28;20197;-86
2021/07/26 16:21:58;;;;;;;4.00;2.20;;;27.80;94.00;;;;;;4978194;28;20190;-84
2021/07/26 16:24:24;;;;;;;4.90;2.33;;;27.80;94.00;;;;;;4959011;28;20224;-88
2021/07/26 16:26:49;;;;;;;3.13;2.40;;;27.30;94.60;;;;;;4969072;28;20222;-88
2021/07/26 16:29:16;;;;;;;2.87;2.53;;;26.90;95.00;;;;;;4975429;28;20556;-89
2021/07/26 16:31:41;;;;;;;3.97;2.70;;;26.70;95.00;;;;;;4978534;28;20175;-89
2021/07/26 16:34:07;;;;;;;3.30;2.40;;;26.30;95.70;;;;;;4978935;28;20574;-88
2021/07/26 16:36:32;;;;;;;3.80;2.50;;;26.10;96.00;;;;;;4969094;28;20189;-87
2021/07/26 16:38:58;;;;;;;5.07;2.20;;;26.00;95.90;;;;;;4995018;28;20275;-81
2021/07/26 16:41:25;;;;;;;2.53;2.13;;;25.90;96.20;;;;;;4977224;28;20209;-82
2021/07/26 16:43:50;;;;;;;3.10;2.53;;;25.90;96.70;;;;;;4999219;28;20189;-82
2021/07/26 16:46:16;;;;;;;3.50;2.77;;;25.90;96.90;;;;;;4980202;28;20277;-82
2021/07/26 16:48:42;;;;;;;4.83;2.60;;;26.00;96.70;;;;;;4979111;28;20193;-81
2021/07/26 16:51:08;;;;;;;3.13;2.40;;;26.10;96.30;;;;;;4981149;28;20192;-81
2021/07/26 16:53:33;;;;;;;3.97;2.50;;;26.10;95.90;;;;;;4995457;28;20264;-81
2021/07/26 16:55:59;;;;;;;4.17;2.70;;;25.90;96.20;;;;;;4975980;28;20272;-82
2021/07/26 16:58:25;;;;;;;3.87;2.30;;;25.80;96.50;;;;;;4977645;28;20182;-81
2021/07/26 17:00:55;;;;;;;3.43;2.33;;;25.70;96.50;;;;;;4978134;28;20323;-81
2021/07/26 17:03:21;;;;;;;4.27;3.03;;;25.80;96.70;;;;;;4985888;28;20177;-81
2021/07/26 17:05:47;;;;;;;3.50;2.77;;;25.70;97.00;;;;;;4986504;28;20185;-80
2021/07/26 17:08:12;;;;;;;3.90;2.83;;;25.60;96.70;;;;;;4982170;28;20599;-81
2021/07/26 17:10:38;;;;;;;3.53;2.73;;;25.40;96.60;;;;;;4971124;28;20520;-81
2021/07/26 17:13:03;;;;;;;4.67;2.80;;;25.30;96.70;;;;;;4980159;28;20342;-81
2021/07/26 17:15:29;;;;;;;3.43;3.07;;;25.10;97.40;;;;;;4993530;28;20204;-81
2021/07/26 17:17:54;;;;;;;3.40;2.93;;;25.20;97.70;;;;;;4998394;28;20181;-82
2021/07/26 17:20:20;;;;;;;4.60;3.17;;;25.10;97.80;;;;;;4998167;28;20290;-81
2021/07/26 17:22:49;;;;;;;3.03;2.73;;;25.00;97.90;;;;;;4988017;28;20169;-81
2021/07/26 17:25:14;;;;;;;4.37;2.97;;;24.90;98.30;;;;;;4983812;28;20197;-81
2021/07/26 17:27:40;;;;;;;4.63;3.13;;;24.80;98.80;;;;;;4971970;28;20186;-82
2021/07/26 17:30:06;;;;;;;3.90;3.23;;;24.60;99.10;;;;;;4988869;28;20217;-81
2021/07/26 17:32:33;;;;;;;4.13;3.27;;;24.60;99.30;;;;;;4993171;28;20674;-81
2021/07/26 17:34:59;;;;;;;5.27;3.40;;;24.60;99.40;;;;;;4980290;28;20192;-80
2021/07/26 17:37:24;;;;;;;3.67;3.07;;;24.40;99.50;;;;;;4990359;28;20661;-80
2021/07/26 17:39:51;;;;;;;3.70;3.17;;;24.20;99.30;;;;;;4971997;28;20288;-81
2021/07/26 17:42:17;;;;;;;4.97;3.47;;;24.00;99.60;;;;;;4988349;28;20196;-80
2021/07/26 17:44:42;;;;;;;3.70;3.10;;;23.80;99.90;;;;;;4979023;28;20187;-81
2021/07/26 17:47:08;;;;;;;6.00;3.17;;;23.80;99.90;;;;;;4976164;28;20258;-80
2021/07/26 17:49:34;;;;;;;5.63;3.80;;;23.80;99.90;;;;;;4978250;28;20552;-80
2021/07/26 17:51:59;;;;;;;10.60;4.50;;;23.70;99.90;;;;;;4980836;28;20306;-79
2021/07/26 17:54:25;;;;;;;8.03;3.70;;;23.50;99.90;;;;;;4985696;28;20644;-81
2021/07/26 17:56:51;;;;;;;6.43;3.93;;;23.50;99.90;;;;;;4982414;28;20188;-82
2021/07/26 17:59:16;;;;;;;4.57;3.40;;;23.40;99.90;;;;;;4978005;28;20291;-81
2021/07/26 18:01:42;;;;;;;4.77;3.70;;;23.40;99.90;;;;;;4978739;28;20229;-81
2021/07/26 18:04:08;;;;;;;6.47;4.30;;;23.40;99.90;;;;;;4977932;28;20197;-80
2021/07/26 18:06:34;;;;;;;9.70;4.37;;;23.50;99.90;;;;;;4977934;28;20232;-81
2021/07/26 18:09:00;;;;;;;6.30;4.23;;;23.70;99.90;;;;;;4976840;28;20226;-80
2021/07/26 18:11:26;;;;;;;7.27;4.63;;;23.80;99.90;;;;;;4977887;28;20190;-81
2021/07/26 18:13:51;;;;;;;6.43;5.20;;;23.90;99.90;;;;;;4972420;28;20193;-81
2021/07/26 18:16:17;;;;;;;6.27;4.67;;;23.90;99.90;;;;;;4978998;28;20651;-80
2021/07/26 18:18:43;;;;;;;10.17;6.97;;;23.70;99.90;;;;;;4970228;28;20187;-82
2021/07/26 18:21:10;;;;;;;7.07;6.37;;;23.50;99.90;;;;;;4974067;28;20223;-80
2021/07/26 18:23:35;;;;;;;7.63;5.87;;;23.40;99.90;;;;;;4971873;28;20195;-81
2021/07/26 18:26:01;;;;;;;8.40;5.97;;;23.60;99.90;;;;;;4973262;28;20190;-81
2021/07/26 18:28:26;;;;;;;8.13;6.17;;;23.80;99.90;;;;;;4969795;28;20631;-80
2021/07/26 18:30:53;;;;;;;7.47;5.53;;;24.00;99.90;;;;;;4971592;28;20190;-80
2021/07/26 18:33:22;;;;;;;7.43;5.97;;;24.10;99.90;;;;;;4972594;28;20206;-80
2021/07/26 18:35:47;;;;;;;8.53;5.40;;;24.20;99.90;;;;;;4979942;28;20592;-81
2021/07/26 18:38:13;;;;;;;7.13;6.13;;;24.30;99.90;;;;;;4971732;28;20231;-80
2021/07/26 18:40:39;;;;;;;5.90;5.30;;;24.30;99.90;;;;;;4977255;28;20551;-81
2021/07/26 18:43:04;;;;;;;10.00;6.53;;;24.30;99.90;;;;;;4973577;28;20663;-81
2021/07/26 18:45:30;;;;;;;17.67;13.83;;;23.90;99.90;;;;;;4984014;28;20219;-81
2021/07/26 18:47:56;;;;;;;7.20;6.40;;;23.70;99.90;;;;;;4972657;28;20257;-80
2021/07/26 18:50:21;;;;;;;7.90;6.13;;;23.70;99.90;;;;;;4970396;28;20684;-81
2021/07/26 18:52:47;;;;;;;9.47;7.17;;;23.60;99.90;;;;;;4977347;28;20190;-80
2021/07/26 18:55:13;;;;;;;8.03;6.53;;;23.50;99.90;;;;;;4971237;28;20175;-81
2021/07/26 18:57:39;;;;;;;7.27;6.00;;;23.40;99.90;;;;;;4967077;28;20197;-82
2021/07/26 19:00:08;;;;;;;7.63;5.97;;;23.20;99.90;;;;;;4974862;28;20311;-81
2021/07/26 19:02:34;;;;;;;8.03;7.03;;;23.10;99.90;;;;;;4973403;28;20244;-88
2021/07/26 19:05:00;;;;;;;8.23;6.87;;;23.20;99.90;;;;;;4961485;28;20280;-80
2021/07/26 19:07:25;;;;;;;10.00;7.00;;;23.20;99.90;;;;;;4985468;28;20245;-79
2021/07/26 19:09:51;;;;;;;8.67;6.87;;;23.20;99.90;;;;;;4980013;28;20197;-80
2021/07/26 19:12:17;;;;;;;8.83;6.60;;;23.00;99.90;;;;;;4998318;28;20200;-78
2021/07/26 19:14:42;;;;;;;8.77;6.90;;;22.80;99.90;;;;;;4996963;28;20194;-81
2021/07/26 19:17:08;;;;;;;9.93;7.27;;;22.70;99.90;;;;;;4999409;28;20191;-81
2021/07/26 19:19:37;;;;;;;9.40;8.17;;;22.60;99.90;;;;;;5001887;28;20199;-79
2021/07/26 19:22:04;;;;;;;9.40;8.07;;;22.60;99.90;;;;;;4997828;28;20230;-80
2021/07/26 19:24:33;;;;;;;10.47;8.17;;;22.40;99.90;;;;;;4998951;28;20196;-81
2021/07/26 19:26:59;;;;;;;12.30;8.13;;;22.40;99.90;;;;;;4997261;28;20188;-80
2021/07/26 19:29:25;;;;;;;10.17;9.07;;;22.40;99.90;;;;;;4997271;28;20206;-79
2021/07/26 19:31:50;;;;;;;11.90;9.13;;;22.40;99.90;;;;;;4996456;28;20179;-81
2021/07/26 19:34:16;;;;;;;11.10;8.73;;;22.20;99.90;;;;;;4997815;28;20193;-80
2021/07/26 19:36:42;;;;;;;12.03;8.97;;;22.20;99.90;;;;;;4998702;28;20577;-79
2021/07/26 19:39:08;;;;;;;12.70;9.07;;;22.20;99.90;;;;;;4998876;28;20197;-77
2021/07/26 19:41:34;;;;;;;10.60;8.87;;;22.20;99.90;;;;;;4998056;28;20220;-81
2021/07/26 19:44:05;;;;;;;10.77;8.80;;;22.10;99.90;;;;;;4994696;28;21518;-80
2021/07/26 19:46:32;;;;;;;13.37;9.30;;;22.10;99.90;;;;;;4999964;28;20194;-80
2021/07/26 19:48:59;;;;;;;11.00;8.70;;;22.00;99.90;;;;;;5001492;28;20183;-79
2021/07/26 19:51:26;;;;;;;12.03;9.17;;;22.00;99.90;;;;;;4998250;28;20187;-80
2021/07/26 19:53:51;;;;;;;11.50;8.87;;;22.00;99.90;;;;;;5000159;28;20542;-80
2021/07/26 19:56:18;;;;;;;12.70;9.33;;;22.10;99.90;;;;;;5002302;28;20194;-81
2021/07/26 19:58:44;;;;;;;12.07;8.60;;;22.10;99.90;;;;;;5001866;28;20267;-78
2021/07/26 20:01:11;;;;;;;10.63;8.57;;;22.10;99.90;;;;;;4997009;28;20212;-79
2021/07/26 20:03:37;;;;;;;12.90;8.47;;;22.10;99.90;;;;;;4982929;28;20199;-80
2021/07/26 20:06:04;;;;;;;13.10;8.60;;;22.00;99.90;;;;;;5003523;28;20274;-81
2021/07/26 20:08:34;;;;;;;10.57;8.30;;;21.90;99.90;;;;;;5000922;28;20191;-80
2021/07/26 20:11:00;;;;;;;11.37;8.23;;;21.70;99.90;;;;;;5003200;28;20193;-80
2021/07/26 20:13:25;;;;;;;11.23;9.03;;;21.60;99.90;;;;;;5004217;28;20663;-79
2021/07/26 20:15:52;;;;;;;10.73;7.87;;;21.60;99.90;;;;;;5003790;28;20647;-80
2021/07/26 20:18:18;;;;;;;9.50;7.73;;;21.60;99.90;;;;;;4997299;28;20249;-80
2021/07/26 20:20:44;;;;;;;10.67;7.40;;;21.70;99.90;;;;;;5002032;28;20305;-78
2021/07/26 20:23:14;;;;;;;11.03;7.83;;;21.70;99.90;;;;;;5005794;28;20227;-80
2021/07/26 20:25:47;;;;;;;11.97;8.23;;;21.60;99.90;;;;;;4978919;28;20586;-80
2021/07/26 20:28:13;;;;;;;10.07;8.20;;;21.60;99.90;;;;;;4998412;28;20190;-79
2021/07/26 20:30:38;;;;;;;11.47;8.00;;;21.50;99.90;;;;;;4999952;28;20200;-80
2021/07/26 20:33:05;;;;;;;11.07;8.17;;;21.50;99.90;;;;;;4979167;28;20210;-78
2021/07/26 20:35:32;;;;;;;11.63;8.07;;;21.40;99.90;;;;;;5005320;28;20590;-79
2021/07/26 20:37:58;;;;;;;10.27;8.17;;;21.30;99.90;;;;;;4994771;28;20248;-78
2021/07/26 20:40:25;;;;;;;12.60;9.40;;;21.40;99.90;;;;;;4998339;28;20218;-79
2021/07/26 20:42:51;;;;;;;11.90;8.80;;;21.40;99.90;;;;;;4999229;28;20191;-78
2021/07/26 20:45:17;;;;;;;11.33;9.00;;;21.50;99.90;;;;;;4994714;28;20210;-78
2021/07/26 20:47:44;;;;;;;11.57;8.53;;;21.80;99.90;;;;;;4983817;28;20194;-77
2021/07/26 20:50:11;;;;;;;12.67;9.23;;;21.80;99.90;;;;;;5006468;28;20203;-77
2021/07/26 20:52:37;;;;;;;13.87;9.77;;;21.80;99.90;;;;;;5001746;28;20191;-78
2021/07/26 20:55:03;;;;;;;16.00;9.23;;;21.70;99.90;;;;;;5000521;28;20186;-77
2021/07/26 20:57:29;;;;;;;10.60;9.37;;;21.70;99.90;;;;;;5002059;28;20191;-78
2021/07/26 20:59:56;;;;;;;15.20;9.20;;;21.60;99.90;;;;;;5001137;28;20190;-77
2021/07/26 21:02:22;;;;;;;13.37;9.90;;;21.50;99.90;;;;;;4998756;28;20181;-79
2021/07/26 21:04:47;;;;;;;13.23;9.57;;;21.50;99.90;;;;;;4997206;28;20236;-80
2021/07/26 21:07:14;;;;;;;15.27;9.67;;;21.50;99.90;;;;;;4999525;28;20572;-78